sensor_id;sensor_type;location;lat;lon;timestamp;pressure;altitude;pressure_sealevel;temperature;humidity
62617;BME280;62539;51.190;6.808;2023-05-09T00:00:26;101487.69;;;22.84;54.50
62617;BME280;62539;51.190;6.808;2023-05-09T00:02:52;101480.66;;;22.83;54.17
62617;BME280;62539;51.190;6.808;2023-05-09T00:05:19;101480.66;;;22.83;54.42
62617;BME280;62539;51.190;6.808;2023-05-09T00:07:46;101476.31;;;22.82;54.29
62617;BME280;62539;51.190;6.808;2023-05-09T00:10:12;101471.94;;;22.81;54.49
62617;BME280;62539;51.190;6.808;2023-05-09T00:12:38;101471.00;;;22.82;54.32
62617;BME280;62539;51.190;6.808;2023-05-09T00:15:04;101471.06;;;22.81;54.22
62617;BME280;62539;51.190;6.808;2023-05-09T00:17:32;101460.56;;;22.79;54.32
62617;BME280;62539;51.190;6.808;2023-05-09T00:19:58;101469.41;;;22.78;54.61
62617;BME280;62539;51.190;6.808;2023-05-09T00:22:26;101464.97;;;22.79;54.32
62617;BME280;62539;51.190;6.808;2023-05-09T00:24:52;101462.41;;;22.77;54.32
62617;BME280;62539;51.190;6.808;2023-05-09T00:27:17;101460.69;;;22.76;54.68
62617;BME280;62539;51.190;6.808;2023-05-09T00:29:43;101465.97;;;22.76;54.40
62617;BME280;62539;51.190;6.808;2023-05-09T00:32:09;101464.25;;;22.75;54.71
62617;BME280;62539;51.190;6.808;2023-05-09T00:34:35;101459.91;;;22.74;54.33
62617;BME280;62539;51.190;6.808;2023-05-09T00:37:00;101448.44;;;22.73;54.25
62617;BME280;62539;51.190;6.808;2023-05-09T00:39:26;101451.09;;;22.73;54.34
62617;BME280;62539;51.190;6.808;2023-05-09T00:41:52;101443.22;;;22.72;54.44
62617;BME280;62539;51.190;6.808;2023-05-09T00:44:17;101441.50;;;22.71;54.71
62617;BME280;62539;51.190;6.808;2023-05-09T00:46:43;101439.78;;;22.70;54.75
62617;BME280;62539;51.190;6.808;2023-05-09T00:49:09;101433.63;;;22.69;54.55
62617;BME280;62539;51.190;6.808;2023-05-09T00:51:38;101427.50;;;22.69;54.31
62617;BME280;62539;51.190;6.808;2023-05-09T00:54:05;101422.19;;;22.69;54.55
62617;BME280;62539;51.190;6.808;2023-05-09T00:56:30;101424.84;;;22.69;54.38
62617;BME280;62539;51.190;6.808;2023-05-09T00:58:56;101419.69;;;22.66;54.37
62617;BME280;62539;51.190;6.808;2023-05-09T01:01:21;101426.75;;;22.65;54.61
62617;BME280;62539;51.190;6.808;2023-05-09T01:03:47;101420.59;;;22.65;54.69
62617;BME280;62539;51.190;6.808;2023-05-09T01:06:21;101417.16;;;22.63;54.50
62617;BME280;62539;51.190;6.808;2023-05-09T01:09:02;101409.22;;;22.63;54.65
62617;BME280;62539;51.190;6.808;2023-05-09T01:11:39;101411.06;;;22.60;54.23
62617;BME280;62539;51.190;6.808;2023-05-09T01:14:29;101412.94;;;22.58;54.76
62617;BME280;62539;51.190;6.808;2023-05-09T01:20:18;101399.84;;;22.55;54.77
62617;BME280;62539;51.190;6.808;2023-05-09T01:23:03;101401.69;;;22.53;54.65
62617;BME280;62539;51.190;6.808;2023-05-09T01:26:04;101403.53;;;22.51;54.86
62617;BME280;62539;51.190;6.808;2023-05-09T01:31:33;101400.94;;;22.50;54.49
62617;BME280;62539;51.190;6.808;2023-05-09T01:34:04;101402.72;;;22.49;54.50
62617;BME280;62539;51.190;6.808;2023-05-09T01:36:35;101393.91;;;22.49;54.92
62617;BME280;62539;51.190;6.808;2023-05-09T01:39:03;101400.13;;;22.48;54.85
62617;BME280;62539;51.190;6.808;2023-05-09T01:41:33;101396.66;;;22.47;54.69
62617;BME280;62539;51.190;6.808;2023-05-09T01:44:04;101398.38;;;22.48;55.04
62617;BME280;62539;51.190;6.808;2023-05-09T01:46:32;101391.34;;;22.47;54.67
62617;BME280;62539;51.190;6.808;2023-05-09T01:49:00;101387.03;;;22.44;55.02
62617;BME280;62539;51.190;6.808;2023-05-09T01:51:27;101394.06;;;22.45;55.02
62617;BME280;62539;51.190;6.808;2023-05-09T01:53:56;101394.06;;;22.45;54.65
62617;BME280;62539;51.190;6.808;2023-05-09T01:56:24;101390.56;;;22.45;55.00
62617;BME280;62539;51.190;6.808;2023-05-09T01:58:51;101388.81;;;22.44;54.96
62617;BME280;62539;51.190;6.808;2023-05-09T02:01:20;101387.94;;;22.43;54.80
62617;BME280;62539;51.190;6.808;2023-05-09T02:03:50;101395.03;;;22.43;54.75
62617;BME280;62539;51.190;6.808;2023-05-09T02:06:19;101384.44;;;22.43;54.93
62617;BME280;62539;51.190;6.808;2023-05-09T02:08:48;101384.44;;;22.43;55.18
62617;BME280;62539;51.190;6.808;2023-05-09T02:11:15;101393.31;;;22.42;55.26
62617;BME280;62539;51.190;6.808;2023-05-09T02:13:40;101388.84;;;22.42;54.75
62617;BME280;62539;51.190;6.808;2023-05-09T02:16:06;101389.72;;;22.43;54.75
62617;BME280;62539;51.190;6.808;2023-05-09T02:18:32;101383.56;;;22.42;55.03
62617;BME280;62539;51.190;6.808;2023-05-09T02:21:00;101382.72;;;22.42;55.07
62617;BME280;62539;51.190;6.808;2023-05-09T02:23:26;101380.13;;;22.40;54.81
62617;BME280;62539;51.190;6.808;2023-05-09T02:25:51;101376.63;;;22.40;55.17
62617;BME280;62539;51.190;6.808;2023-05-09T02:28:19;101379.28;;;22.40;54.99
62617;BME280;62539;51.190;6.808;2023-05-09T02:30:48;101381.00;;;22.41;55.00
62617;BME280;62539;51.190;6.808;2023-05-09T02:33:16;101383.69;;;22.39;55.17
62617;BME280;62539;51.190;6.808;2023-05-09T02:35:44;101386.34;;;22.39;55.11
62617;BME280;62539;51.190;6.808;2023-05-09T02:38:11;101388.13;;;22.39;54.78
62617;BME280;62539;51.190;6.808;2023-05-09T02:40:36;101383.78;;;22.38;55.19
62617;BME280;62539;51.190;6.808;2023-05-09T02:43:03;101374.97;;;22.37;55.23
62617;BME280;62539;51.190;6.808;2023-05-09T02:45:28;101381.13;;;22.38;54.86
62617;BME280;62539;51.190;6.808;2023-05-09T02:47:54;101374.13;;;22.37;54.88
62617;BME280;62539;51.190;6.808;2023-05-09T02:50:19;101374.13;;;22.37;55.01
62617;BME280;62539;51.190;6.808;2023-05-09T02:52:45;101373.25;;;22.36;54.92
62617;BME280;62539;51.190;6.808;2023-05-09T02:55:10;101367.13;;;22.36;54.99
62617;BME280;62539;51.190;6.808;2023-05-09T02:57:36;101366.25;;;22.35;55.34
62617;BME280;62539;51.190;6.808;2023-05-09T03:00:03;101361.84;;;22.36;55.06
62617;BME280;62539;51.190;6.808;2023-05-09T03:02:33;101365.41;;;22.35;55.23
62617;BME280;62539;51.190;6.808;2023-05-09T03:04:58;101360.97;;;22.35;55.05
62617;BME280;62539;51.190;6.808;2023-05-09T03:07:23;101354.81;;;22.35;54.88
62617;BME280;62539;51.190;6.808;2023-05-09T03:09:49;101358.38;;;22.34;55.14
62617;BME280;62539;51.190;6.808;2023-05-09T03:12:14;101363.69;;;22.34;55.04
62617;BME280;62539;51.190;6.808;2023-05-09T03:14:39;101361.97;;;22.32;55.37
62617;BME280;62539;51.190;6.808;2023-05-09T03:17:05;101368.09;;;22.33;55.47
62617;BME280;62539;51.190;6.808;2023-05-09T03:19:31;101356.66;;;22.32;55.07
62617;BME280;62539;51.190;6.808;2023-05-09T03:21:56;101354.03;;;22.32;55.12
62617;BME280;62539;51.190;6.808;2023-05-09T03:24:22;101366.31;;;22.34;55.09
62617;BME280;62539;51.190;6.808;2023-05-09T03:26:47;101356.66;;;22.32;55.23
62617;BME280;62539;51.190;6.808;2023-05-09T03:29:12;101360.25;;;22.31;55.35
62617;BME280;62539;51.190;6.808;2023-05-09T03:31:38;101360.25;;;22.31;55.35
62617;BME280;62539;51.190;6.808;2023-05-09T03:34:03;101360.25;;;22.31;55.31
62617;BME280;62539;51.190;6.808;2023-05-09T03:36:29;101352.31;;;22.31;55.08
62617;BME280;62539;51.190;6.808;2023-05-09T03:38:54;101353.22;;;22.30;55.38
62617;BME280;62539;51.190;6.808;2023-05-09T03:41:19;101354.06;;;22.31;55.34
62617;BME280;62539;51.190;6.808;2023-05-09T03:43:45;101349.72;;;22.30;55.39
62617;BME280;62539;51.190;6.808;2023-05-09T03:46:10;101346.22;;;22.29;55.28
62617;BME280;62539;51.190;6.808;2023-05-09T03:48:36;101339.13;;;22.30;55.53
62617;BME280;62539;51.190;6.808;2023-05-09T03:51:01;101333.94;;;22.28;55.25
62617;BME280;62539;51.190;6.808;2023-05-09T03:53:27;101329.50;;;22.29;55.15
62617;BME280;62539;51.190;6.808;2023-05-09T03:55:52;101333.94;;;22.28;55.47
62617;BME280;62539;51.190;6.808;2023-05-09T03:58:18;101328.66;;;22.28;55.43
62617;BME280;62539;51.190;6.808;2023-05-09T04:00:43;101332.22;;;22.27;55.35
62617;BME280;62539;51.190;6.808;2023-05-09T04:03:09;101328.66;;;22.28;55.20
62617;BME280;62539;51.190;6.808;2023-05-09T04:05:35;101316.34;;;22.27;55.51
62617;BME280;62539;51.190;6.808;2023-05-09T04:08:02;101318.06;;;22.28;55.49
62617;BME280;62539;51.190;6.808;2023-05-09T04:10:28;101319.00;;;22.27;55.57
62617;BME280;62539;51.190;6.808;2023-05-09T04:12:54;101311.06;;;22.27;55.29
62617;BME280;62539;51.190;6.808;2023-05-09T04:15:20;101311.06;;;22.27;55.51
62617;BME280;62539;51.190;6.808;2023-05-09T04:17:45;101299.63;;;22.27;55.49
62617;BME280;62539;51.190;6.808;2023-05-09T04:20:11;101309.34;;;22.26;55.24
62617;BME280;62539;51.190;6.808;2023-05-09T04:22:37;101297.91;;;22.26;55.23
62617;BME280;62539;51.190;6.808;2023-05-09T04:25:02;101304.06;;;22.26;55.29
62617;BME280;62539;51.190;6.808;2023-05-09T04:27:28;101293.50;;;22.26;55.51
62617;BME280;62539;51.190;6.808;2023-05-09T04:29:54;101285.56;;;22.26;55.56
62617;BME280;62539;51.190;6.808;2023-05-09T04:32:19;101275.91;;;22.25;55.30
62617;BME280;62539;51.190;6.808;2023-05-09T04:34:47;101281.19;;;22.25;55.57
62617;BME280;62539;51.190;6.808;2023-05-09T04:37:13;101283.91;;;22.24;55.14
62617;BME280;62539;51.190;6.808;2023-05-09T04:39:38;101289.13;;;22.25;55.21
62617;BME280;62539;51.190;6.808;2023-05-09T04:42:04;101288.34;;;22.23;55.41
62617;BME280;62539;51.190;6.808;2023-05-09T04:44:30;101294.47;;;22.24;55.16
62617;BME280;62539;51.190;6.808;2023-05-09T04:46:56;101291.91;;;22.22;55.55
62617;BME280;62539;51.190;6.808;2023-05-09T04:49:22;101294.47;;;22.24;55.18
62617;BME280;62539;51.190;6.808;2023-05-09T04:51:48;101289.19;;;22.24;55.24
62617;BME280;62539;51.190;6.808;2023-05-09T04:56:39;101291.78;;;22.25;55.15
62617;BME280;62539;51.190;6.808;2023-05-09T04:59:04;101291.78;;;22.25;55.40
62617;BME280;62539;51.190;6.808;2023-05-09T05:01:30;101291.78;;;22.25;55.23
62617;BME280;62539;51.190;6.808;2023-05-09T05:03:55;101285.56;;;22.26;55.46
62617;BME280;62539;51.190;6.808;2023-05-09T05:06:20;101282.94;;;22.26;55.47
62617;BME280;62539;51.190;6.808;2023-05-09T05:08:46;101277.63;;;22.26;55.36
62617;BME280;62539;51.190;6.808;2023-05-09T05:11:11;101274.06;;;22.27;55.37
62617;BME280;62539;51.190;6.808;2023-05-09T05:13:37;101281.06;;;22.28;55.51
62617;BME280;62539;51.190;6.808;2023-05-09T05:16:03;101278.44;;;22.28;55.49
62617;BME280;62539;51.190;6.808;2023-05-09T05:18:28;101274.06;;;22.27;55.41
62617;BME280;62539;51.190;6.808;2023-05-09T05:20:54;101280.19;;;22.28;55.33
62617;BME280;62539;51.190;6.808;2023-05-09T05:23:19;101271.44;;;22.27;55.28
62617;BME280;62539;51.190;6.808;2023-05-09T05:25:45;101259.06;;;22.28;55.37
62617;BME280;62539;51.190;6.808;2023-05-09T05:28:10;101271.34;;;22.29;55.58
62617;BME280;62539;51.190;6.808;2023-05-09T05:30:35;101267.84;;;22.28;55.58
62617;BME280;62539;51.190;6.808;2023-05-09T05:33:01;101259.94;;;22.28;55.79
62617;BME280;62539;51.190;6.808;2023-05-09T05:35:26;101255.50;;;22.29;55.56
62617;BME280;62539;51.190;6.808;2023-05-09T05:37:53;101247.50;;;22.30;55.60
62617;BME280;62539;51.190;6.808;2023-05-09T05:40:18;101240.44;;;22.31;55.54
62617;BME280;62539;51.190;6.808;2023-05-09T05:42:43;101236.84;;;22.32;55.76
62617;BME280;62539;51.190;6.808;2023-05-09T05:45:10;101247.38;;;22.34;55.84
62617;BME280;62539;51.190;6.808;2023-05-09T05:47:36;101239.38;;;22.35;55.78
62617;BME280;62539;51.190;6.808;2023-05-09T05:50:03;101235.81;;;22.36;55.73
62617;BME280;62539;51.190;6.808;2023-05-09T05:52:36;101239.25;;;22.38;55.37
62617;BME280;62539;51.190;6.808;2023-05-09T05:55:02;101236.53;;;22.40;55.51
62617;BME280;62539;51.190;6.808;2023-05-09T05:57:28;101237.34;;;22.42;55.49
62617;BME280;62539;51.190;6.808;2023-05-09T05:59:54;101236.41;;;22.43;55.57
62617;BME280;62539;51.190;6.808;2023-05-09T06:02:19;101223.13;;;22.44;55.24
62617;BME280;62539;51.190;6.808;2023-05-09T06:04:45;101229.22;;;22.46;55.25
62617;BME280;62539;51.190;6.808;2023-05-09T06:07:11;101229.16;;;22.48;55.56
62617;BME280;62539;51.190;6.808;2023-05-09T06:09:37;101220.31;;;22.49;55.28
62617;BME280;62539;51.190;6.808;2023-05-09T06:12:03;101219.31;;;22.52;55.58
62617;BME280;62539;51.190;6.808;2023-05-09T06:14:29;101218.31;;;22.54;55.20
62617;BME280;62539;51.190;6.808;2023-05-09T06:16:55;101218.31;;;22.54;55.13
62617;BME280;62539;51.190;6.808;2023-05-09T06:19:20;101211.19;;;22.56;55.40
62617;BME280;62539;51.190;6.808;2023-05-09T06:21:46;101206.59;;;22.60;55.17
62617;BME280;62539;51.190;6.808;2023-05-09T06:24:11;101207.47;;;22.60;55.39
62617;BME280;62539;51.190;6.808;2023-05-09T06:26:37;101214.38;;;22.63;55.09
62617;BME280;62539;51.190;6.808;2023-05-09T06:29:03;101208.16;;;22.64;54.83
62617;BME280;62539;51.190;6.808;2023-05-09T06:31:30;101202.84;;;22.66;54.84
62617;BME280;62539;51.190;6.808;2023-05-09T06:33:55;101201.91;;;22.67;54.78
62617;BME280;62539;51.190;6.808;2023-05-09T06:36:21;101194.75;;;22.69;54.72
62617;BME280;62539;51.190;6.808;2023-05-09T06:38:46;101190.31;;;22.69;54.90
62617;BME280;62539;51.190;6.808;2023-05-09T06:41:12;101175.31;;;22.70;54.78
62617;BME280;62539;51.190;6.808;2023-05-09T06:43:37;101177.03;;;22.71;54.80
62617;BME280;62539;51.190;6.808;2023-05-09T06:46:02;101185.75;;;22.73;55.02
62617;BME280;62539;51.190;6.808;2023-05-09T06:48:28;101182.19;;;22.74;54.57
62617;BME280;62539;51.190;6.808;2023-05-09T06:50:53;101178.63;;;22.75;54.78
62617;BME280;62539;51.190;6.808;2023-05-09T06:53:19;101169.75;;;22.76;54.74
62617;BME280;62539;51.190;6.808;2023-05-09T06:55:44;101175.81;;;22.78;54.75
62617;BME280;62539;51.190;6.808;2023-05-09T06:58:10;101170.53;;;22.78;54.49
62617;BME280;62539;51.190;6.808;2023-05-09T07:00:36;101164.31;;;22.79;54.71
62617;BME280;62539;51.190;6.808;2023-05-09T07:03:02;101159.88;;;22.80;54.44
62617;BME280;62539;51.190;6.808;2023-05-09T07:05:27;101165.09;;;22.81;54.38
62617;BME280;62539;51.190;6.808;2023-05-09T07:07:53;101151.00;;;22.81;54.67
62617;BME280;62539;51.190;6.808;2023-05-09T07:10:19;101157.16;;;22.81;54.42
62617;BME280;62539;51.190;6.808;2023-05-09T07:12:46;101157.16;;;22.81;54.41
62617;BME280;62539;51.190;6.808;2023-05-09T07:15:11;101151.88;;;22.81;54.62
62617;BME280;62539;51.190;6.808;2023-05-09T07:17:37;101139.59;;;22.80;54.48
62617;BME280;62539;51.190;6.808;2023-05-09T07:20:04;101141.28;;;22.81;54.64
62617;BME280;62539;51.190;6.808;2023-05-09T07:22:31;101141.28;;;22.81;54.65
62617;BME280;62539;51.190;6.808;2023-05-09T07:24:56;101134.28;;;22.80;54.82
62617;BME280;62539;51.190;6.808;2023-05-09T07:27:22;101133.28;;;22.83;54.44
62617;BME280;62539;51.190;6.808;2023-05-09T07:29:47;101134.16;;;22.83;54.33
62617;BME280;62539;51.190;6.808;2023-05-09T07:32:16;101126.22;;;22.83;54.69
62617;BME280;62539;51.190;6.808;2023-05-09T07:34:42;101116.56;;;22.82;54.69
62617;BME280;62539;51.190;6.808;2023-05-09T07:37:07;101123.56;;;22.83;54.55
62617;BME280;62539;51.190;6.808;2023-05-09T07:39:32;101117.41;;;22.83;54.67
62617;BME280;62539;51.190;6.808;2023-05-09T07:41:58;101123.56;;;22.83;54.25
62617;BME280;62539;51.190;6.808;2023-05-09T07:44:23;101125.34;;;22.83;54.53
62617;BME280;62539;51.190;6.808;2023-05-09T07:46:49;101112.06;;;22.84;54.62
62617;BME280;62539;51.190;6.808;2023-05-09T07:49:14;101113.78;;;22.85;54.47
62617;BME280;62539;51.190;6.808;2023-05-09T07:51:40;101113.63;;;22.88;54.53
62617;BME280;62539;51.190;6.808;2023-05-09T07:54:05;101110.06;;;22.89;54.28
62617;BME280;62539;51.190;6.808;2023-05-09T07:56:31;101110.84;;;22.92;54.36
62617;BME280;62539;51.190;6.808;2023-05-09T07:58:56;101106.38;;;22.92;54.33
62617;BME280;62539;51.190;6.808;2023-05-09T08:01:21;101098.41;;;22.94;53.96
62617;BME280;62539;51.190;6.808;2023-05-09T08:03:47;101089.53;;;22.95;54.21
62617;BME280;62539;51.190;6.808;2023-05-09T08:06:12;101085.06;;;22.95;53.84
62617;BME280;62539;51.190;6.808;2023-05-09T08:08:37;101082.38;;;22.97;54.37
62617;BME280;62539;51.190;6.808;2023-05-09T08:11:04;101074.44;;;22.97;54.18
62617;BME280;62539;51.190;6.808;2023-05-09T08:13:29;101066.50;;;22.97;53.91
62617;BME280;62539;51.190;6.808;2023-05-09T08:15:54;101074.34;;;22.98;54.13
62617;BME280;62539;51.190;6.808;2023-05-09T08:18:20;101072.56;;;22.99;53.70
62617;BME280;62539;51.190;6.808;2023-05-09T08:20:45;101068.06;;;23.01;54.04
62617;BME280;62539;51.190;6.808;2023-05-09T08:23:11;101061.84;;;23.02;54.07
62617;BME280;62539;51.190;6.808;2023-05-09T08:25:36;101060.91;;;23.03;53.69
62617;BME280;62539;51.190;6.808;2023-05-09T08:28:02;101055.53;;;23.04;53.94
62617;BME280;62539;51.190;6.808;2023-05-09T08:30:27;101049.31;;;23.05;53.82
62617;BME280;62539;51.190;6.808;2023-05-09T08:32:54;101053.59;;;23.08;53.50
62617;BME280;62539;51.190;6.808;2023-05-09T08:35:20;101052.66;;;23.09;53.90
62617;BME280;62539;51.190;6.808;2023-05-09T08:37:45;101044.63;;;23.11;53.69
62617;BME280;62539;51.190;6.808;2023-05-09T08:40:12;101047.22;;;23.12;53.48
62617;BME280;62539;51.190;6.808;2023-05-09T08:42:38;101045.28;;;23.16;53.30
62617;BME280;62539;51.190;6.808;2023-05-09T08:45:08;101038.19;;;23.16;53.43
62617;BME280;62539;51.190;6.808;2023-05-09T08:47:38;101039.81;;;23.19;53.18
62617;BME280;62539;51.190;6.808;2023-05-09T08:50:06;101030.09;;;23.19;53.20
62617;BME280;62539;51.190;6.808;2023-05-09T08:52:33;101022.06;;;23.21;53.16
62617;BME280;62539;51.190;6.808;2023-05-09T08:55:00;101014.06;;;23.23;52.98
62617;BME280;62539;51.190;6.808;2023-05-09T08:57:30;101019.25;;;23.26;52.87
62617;BME280;62539;51.190;6.808;2023-05-09T08:59:57;101019.25;;;23.26;52.77
62617;BME280;62539;51.190;6.808;2023-05-09T09:02:23;101012.91;;;23.28;52.71
62617;BME280;62539;51.190;6.808;2023-05-09T09:04:48;101015.50;;;23.30;52.76
62617;BME280;62539;51.190;6.808;2023-05-09T09:07:14;101016.19;;;23.33;52.74
62617;BME280;62539;51.190;6.808;2023-05-09T09:09:45;101002.03;;;23.34;52.84
62617;BME280;62539;51.190;6.808;2023-05-09T09:12:14;100996.50;;;23.39;52.78
62617;BME280;62539;51.190;6.808;2023-05-09T09:14:45;100988.41;;;23.42;52.32
62617;BME280;62539;51.190;6.808;2023-05-09T09:17:17;100994.38;;;23.46;52.37
62617;BME280;62539;51.190;6.808;2023-05-09T09:19:49;100991.66;;;23.47;52.24
62617;BME280;62539;51.190;6.808;2023-05-09T09:22:18;100993.28;;;23.50;52.25
62617;BME280;62539;51.190;6.808;2023-05-09T09:24:44;100992.34;;;23.51;52.09
62617;BME280;62539;51.190;6.808;2023-05-09T09:27:10;100996.66;;;23.54;51.99
62617;BME280;62539;51.190;6.808;2023-05-09T09:29:35;100982.38;;;23.56;52.37
62617;BME280;62539;51.190;6.808;2023-05-09T09:32:04;100984.03;;;23.59;51.97
62617;BME280;62539;51.190;6.808;2023-05-09T09:34:31;100983.09;;;23.60;51.88
62617;BME280;62539;51.190;6.808;2023-05-09T09:36:57;100974.19;;;23.61;52.15
62617;BME280;62539;51.190;6.808;2023-05-09T09:39:22;100970.53;;;23.63;51.62
62617;BME280;62539;51.190;6.808;2023-05-09T09:41:48;100974.88;;;23.64;51.80
62617;BME280;62539;51.190;6.808;2023-05-09T09:44:16;100969.50;;;23.66;51.89
62617;BME280;62539;51.190;6.808;2023-05-09T09:46:52;100966.88;;;23.66;51.55
62617;BME280;62539;51.190;6.808;2023-05-09T09:49:23;100962.41;;;23.67;51.92
62617;BME280;62539;51.190;6.808;2023-05-09T09:51:57;100963.28;;;23.67;51.62
62617;BME280;62539;51.190;6.808;2023-05-09T09:54:26;100961.41;;;23.69;51.54
62617;BME280;62539;51.190;6.808;2023-05-09T09:56:53;100954.31;;;23.70;51.88
62617;BME280;62539;51.190;6.808;2023-05-09T09:59:25;100956.88;;;23.71;51.55
62617;BME280;62539;51.190;6.808;2023-05-09T10:02:01;100954.13;;;23.73;51.57
62617;BME280;62539;51.190;6.808;2023-05-09T10:04:32;100949.72;;;23.73;51.58
62617;BME280;62539;51.190;6.808;2023-05-09T10:07:01;100940.81;;;23.74;51.39
62617;BME280;62539;51.190;6.808;2023-05-09T10:09:30;100945.19;;;23.75;51.21
62617;BME280;62539;51.190;6.808;2023-05-09T10:12:00;100942.53;;;23.75;51.34
62617;BME280;62539;51.190;6.808;2023-05-09T10:14:32;100938.94;;;23.76;51.32
62617;BME280;62539;51.190;6.808;2023-05-09T10:17:00;100928.19;;;23.80;51.47
62617;BME280;62539;51.190;6.808;2023-05-09T10:19:28;100932.53;;;23.81;51.25
62617;BME280;62539;51.190;6.808;2023-05-09T10:21:56;100929.72;;;23.84;51.23
62617;BME280;62539;51.190;6.808;2023-05-09T10:24:27;100931.44;;;23.85;50.95
62617;BME280;62539;51.190;6.808;2023-05-09T10:27:02;100925.16;;;23.86;51.29
62617;BME280;62539;51.190;6.808;2023-05-09T10:29:34;100917.22;;;23.86;51.01
62617;BME280;62539;51.190;6.808;2023-05-09T10:32:31;100911.94;;;23.86;51.05
62617;BME280;62539;51.190;6.808;2023-05-09T10:35:15;100904.84;;;23.86;50.99
62617;BME280;62539;51.190;6.808;2023-05-09T10:37:42;100902.19;;;23.86;50.97
62617;BME280;62539;51.190;6.808;2023-05-09T10:40:10;100903.03;;;23.87;51.25
62617;BME280;62539;51.190;6.808;2023-05-09T10:42:42;100896.81;;;23.88;51.00
62617;BME280;62539;51.190;6.808;2023-05-09T10:45:12;100891.44;;;23.89;50.90
62617;BME280;62539;51.190;6.808;2023-05-09T10:47:39;100888.69;;;23.91;51.01
62617;BME280;62539;51.190;6.808;2023-05-09T10:50:07;100894.75;;;23.93;50.97
62617;BME280;62539;51.190;6.808;2023-05-09T10:55:55;100885.69;;;23.97;50.93
62617;BME280;62539;51.190;6.808;2023-05-09T10:58:27;100874.13;;;24.00;50.70
62617;BME280;62539;51.190;6.808;2023-05-09T11:00:59;100873.94;;;24.03;50.42
62617;BME280;62539;51.190;6.808;2023-05-09T11:03:26;100870.25;;;24.05;50.67
62617;BME280;62539;51.190;6.808;2023-05-09T11:05:57;100869.91;;;24.12;50.18
62617;BME280;62539;51.190;6.808;2023-05-09T11:08:27;100856.41;;;24.16;50.17
62617;BME280;62539;51.190;6.808;2023-05-09T11:10:55;100860.50;;;24.22;50.00
62617;BME280;62539;51.190;6.808;2023-05-09T11:13:23;100856.72;;;24.26;49.83
62617;BME280;62539;51.190;6.808;2023-05-09T11:18:28;100850.88;;;24.35;49.70
62617;BME280;62539;51.190;6.808;2023-05-09T11:20:54;100846.94;;;24.43;49.46
62617;BME280;62539;51.190;6.808;2023-05-09T11:23:24;100833.41;;;24.47;49.58
62617;BME280;62539;51.190;6.808;2023-05-09T11:25:51;100827.16;;;24.48;49.08
62617;BME280;62539;51.190;6.808;2023-05-09T11:28:29;100827.25;;;24.47;49.49
62617;BME280;62539;51.190;6.808;2023-05-09T11:31:09;100830.84;;;24.46;49.30
62617;BME280;62539;51.190;6.808;2023-05-09T11:33:36;100834.25;;;24.48;49.24
62617;BME280;62539;51.190;6.808;2023-05-09T11:36:20;100814.94;;;24.46;49.43
62617;BME280;62539;51.190;6.808;2023-05-09T11:39:03;100824.59;;;24.47;49.63
62617;BME280;62539;51.190;6.808;2023-05-09T11:41:30;100813.16;;;24.46;49.35
62617;BME280;62539;51.190;6.808;2023-05-09T11:44:01;100798.84;;;24.49;49.28
62617;BME280;62539;51.190;6.808;2023-05-09T11:46:26;100804.06;;;24.50;49.60
62617;BME280;62539;51.190;6.808;2023-05-09T11:48:52;100798.75;;;24.50;49.35
62617;BME280;62539;51.190;6.808;2023-05-09T11:51:18;100793.53;;;24.49;49.50
62617;BME280;62539;51.190;6.808;2023-05-09T11:53:45;100795.34;;;24.48;50.00
62617;BME280;62539;51.190;6.808;2023-05-09T11:56:14;100791.66;;;24.51;50.06
62617;BME280;62539;51.190;6.808;2023-05-09T11:58:41;100779.16;;;24.53;50.31
62617;BME280;62539;51.190;6.808;2023-05-09T12:01:09;100780.28;;;24.49;50.32
62617;BME280;62539;51.190;6.808;2023-05-09T12:03:42;100781.22;;;24.48;50.32
62617;BME280;62539;51.190;6.808;2023-05-09T12:06:13;100772.50;;;24.46;50.29
62617;BME280;62539;51.190;6.808;2023-05-09T12:08:40;100767.50;;;24.41;50.41
62617;BME280;62539;51.190;6.808;2023-05-09T12:11:08;100762.25;;;24.40;50.79
62617;BME280;62539;51.190;6.808;2023-05-09T12:13:34;100757.06;;;24.38;50.70
62617;BME280;62539;51.190;6.808;2023-05-09T12:16:00;100760.56;;;24.39;50.69
62617;BME280;62539;51.190;6.808;2023-05-09T12:18:26;100756.78;;;24.43;51.17
62617;BME280;62539;51.190;6.808;2023-05-09T12:20:52;100752.81;;;24.50;51.04
62617;BME280;62539;51.190;6.808;2023-05-09T12:23:18;100750.56;;;24.58;50.94
62617;BME280;62539;51.190;6.808;2023-05-09T12:26:01;100752.75;;;24.66;50.51
62617;BME280;62539;51.190;6.808;2023-05-09T12:28:27;100740.75;;;24.75;50.52
62617;BME280;62539;51.190;6.808;2023-05-09T12:30:53;100738.66;;;24.80;50.29
62617;BME280;62539;51.190;6.808;2023-05-09T12:33:19;100742.94;;;24.83;50.60
62617;BME280;62539;51.190;6.808;2023-05-09T12:35:46;100730.06;;;24.91;50.32
62617;BME280;62539;51.190;6.808;2023-05-09T12:38:19;100728.81;;;24.97;50.22
62617;BME280;62539;51.190;6.808;2023-05-09T12:40:59;100731.25;;;25.00;50.47
62617;BME280;62539;51.190;6.808;2023-05-09T12:43:36;100724.81;;;25.04;50.03
62617;BME280;62539;51.190;6.808;2023-05-09T12:46:04;100722.06;;;25.05;50.38
62617;BME280;62539;51.190;6.808;2023-05-09T12:48:36;100725.56;;;25.06;50.09
62617;BME280;62539;51.190;6.808;2023-05-09T12:51:04;100712.50;;;25.03;50.24
62617;BME280;62539;51.190;6.808;2023-05-09T12:53:30;100711.84;;;24.99;50.49
62617;BME280;62539;51.190;6.808;2023-05-09T12:56:00;100717.34;;;24.96;50.79
62617;BME280;62539;51.190;6.808;2023-05-09T12:58:33;100725.59;;;24.91;50.78
62617;BME280;62539;51.190;6.808;2023-05-09T13:00:59;100716.97;;;24.88;50.58
62617;BME280;62539;51.190;6.808;2023-05-09T13:03:29;100711.00;;;24.84;50.94
62617;BME280;62539;51.190;6.808;2023-05-09T13:06:03;100712.06;;;24.82;50.98